sensor_id;sensor_type;location;lat;lon;timestamp;P1;durP1;ratioP1;P2;durP2;ratioP2
18316;SDS011;9284;52.298;21.164;2023-10-13T00:02:08;12.38;;;5.00;;
18316;SDS011;9284;52.298;21.164;2023-10-13T00:04:38;13.55;;;5.05;;
18316;SDS011;9284;52.298;21.164;2023-10-13T00:07:09;12.05;;;5.28;;
18316;SDS011;9284;52.298;21.164;2023-10-13T00:09:38;9.32;;;4.65;;
18316;SDS011;9284;52.298;21.164;2023-10-13T00:12:07;12.25;;;5.93;;
18316;SDS011;9284;52.298;21.164;2023-10-13T00:14:40;15.02;;;5.13;;
18316;SDS011;9284;52.298;21.164;2023-10-13T00:17:13;17.10;;;5.22;;
18316;SDS011;9284;52.298;21.164;2023-10-13T00:19:47;12.68;;;5.35;;
18316;SDS011;9284;52.298;21.164;2023-10-13T00:22:19;16.02;;;5.47;;
18316;SDS011;9284;52.298;21.164;2023-10-13T00:24:49;14.77;;;5.75;;
18316;SDS011;9284;52.298;21.164;2023-10-13T00:27:24;13.00;;;5.63;;
18316;SDS011;9284;52.298;21.164;2023-10-13T00:29:57;12.15;;;5.07;;
18316;SDS011;9284;52.298;21.164;2023-10-13T00:32:51;9.55;;;5.43;;
18316;SDS011;9284;52.298;21.164;2023-10-13T00:35:22;17.60;;;6.85;;
18316;SDS011;9284;52.298;21.164;2023-10-13T00:37:55;13.27;;;5.82;;
18316;SDS011;9284;52.298;21.164;2023-10-13T00:40:25;11.13;;;6.05;;
18316;SDS011;9284;52.298;21.164;2023-10-13T00:43:10;10.43;;;5.85;;
18316;SDS011;9284;52.298;21.164;2023-10-13T00:45:57;19.83;;;6.32;;
18316;SDS011;9284;52.298;21.164;2023-10-13T00:48:37;17.10;;;6.28;;
18316;SDS011;9284;52.298;21.164;2023-10-13T00:51:10;11.77;;;5.32;;
18316;SDS011;9284;52.298;21.164;2023-10-13T00:53:49;16.65;;;6.00;;
18316;SDS011;9284;52.298;21.164;2023-10-13T00:56:17;12.85;;;6.13;;
18316;SDS011;9284;52.298;21.164;2023-10-13T00:58:48;20.63;;;6.93;;
18316;SDS011;9284;52.298;21.164;2023-10-13T01:01:18;15.73;;;7.32;;
18316;SDS011;9284;52.298;21.164;2023-10-13T01:03:50;15.15;;;7.05;;
18316;SDS011;9284;52.298;21.164;2023-10-13T01:06:22;14.50;;;6.43;;
18316;SDS011;9284;52.298;21.164;2023-10-13T01:08:59;17.23;;;6.45;;
18316;SDS011;9284;52.298;21.164;2023-10-13T01:11:38;16.73;;;6.20;;
18316;SDS011;9284;52.298;21.164;2023-10-13T01:14:06;14.70;;;6.38;;
18316;SDS011;9284;52.298;21.164;2023-10-13T01:16:34;17.13;;;7.20;;
18316;SDS011;9284;52.298;21.164;2023-10-13T01:19:04;14.77;;;6.90;;
18316;SDS011;9284;52.298;21.164;2023-10-13T01:21:32;23.05;;;7.30;;
18316;SDS011;9284;52.298;21.164;2023-10-13T01:24:01;18.85;;;6.97;;
18316;SDS011;9284;52.298;21.164;2023-10-13T01:26:34;16.85;;;7.35;;
18316;SDS011;9284;52.298;21.164;2023-10-13T01:29:06;16.25;;;6.88;;
18316;SDS011;9284;52.298;21.164;2023-10-13T01:31:41;18.15;;;7.45;;
18316;SDS011;9284;52.298;21.164;2023-10-13T01:34:13;18.17;;;7.45;;
18316;SDS011;9284;52.298;21.164;2023-10-13T01:36:47;17.23;;;7.45;;
18316;SDS011;9284;52.298;21.164;2023-10-13T01:39:19;20.63;;;7.90;;
18316;SDS011;9284;52.298;21.164;2023-10-13T01:41:53;19.88;;;8.27;;
18316;SDS011;9284;52.298;21.164;2023-10-13T01:44:23;17.60;;;7.20;;
18316;SDS011;9284;52.298;21.164;2023-10-13T01:46:52;15.95;;;7.50;;
18316;SDS011;9284;52.298;21.164;2023-10-13T01:49:20;16.70;;;8.40;;
18316;SDS011;9284;52.298;21.164;2023-10-13T01:51:49;17.70;;;8.23;;
18316;SDS011;9284;52.298;21.164;2023-10-13T01:54:17;18.67;;;7.65;;
18316;SDS011;9284;52.298;21.164;2023-10-13T01:56:48;14.77;;;7.07;;
18316;SDS011;9284;52.298;21.164;2023-10-13T01:59:16;14.65;;;6.85;;
18316;SDS011;9284;52.298;21.164;2023-10-13T02:01:44;21.15;;;6.95;;
18316;SDS011;9284;52.298;21.164;2023-10-13T02:04:13;17.15;;;7.75;;
18316;SDS011;9284;52.298;21.164;2023-10-13T02:06:40;14.82;;;7.13;;
18316;SDS011;9284;52.298;21.164;2023-10-13T02:09:09;20.15;;;6.95;;
18316;SDS011;9284;52.298;21.164;2023-10-13T02:11:43;12.82;;;6.85;;
18316;SDS011;9284;52.298;21.164;2023-10-13T02:14:13;15.50;;;6.90;;
18316;SDS011;9284;52.298;21.164;2023-10-13T02:16:43;16.10;;;6.57;;
18316;SDS011;9284;52.298;21.164;2023-10-13T02:19:16;13.80;;;6.23;;
18316;SDS011;9284;52.298;21.164;2023-10-13T02:21:46;25.30;;;6.43;;
18316;SDS011;9284;52.298;21.164;2023-10-13T02:24:25;13.13;;;6.55;;
18316;SDS011;9284;52.298;21.164;2023-10-13T02:26:58;13.32;;;5.97;;
18316;SDS011;9284;52.298;21.164;2023-10-13T02:29:30;12.45;;;5.75;;
18316;SDS011;9284;52.298;21.164;2023-10-13T02:31:57;12.40;;;6.03;;
18316;SDS011;9284;52.298;21.164;2023-10-13T02:34:31;11.50;;;6.70;;
18316;SDS011;9284;52.298;21.164;2023-10-13T02:36:58;14.68;;;6.30;;
18316;SDS011;9284;52.298;21.164;2023-10-13T02:39:28;13.82;;;5.90;;
18316;SDS011;9284;52.298;21.164;2023-10-13T02:42:04;16.27;;;6.17;;
18316;SDS011;9284;52.298;21.164;2023-10-13T02:44:33;13.67;;;5.83;;
18316;SDS011;9284;52.298;21.164;2023-10-13T02:47:03;12.37;;;5.40;;
18316;SDS011;9284;52.298;21.164;2023-10-13T02:49:40;11.02;;;5.03;;
18316;SDS011;9284;52.298;21.164;2023-10-13T02:52:10;16.85;;;5.90;;
18316;SDS011;9284;52.298;21.164;2023-10-13T02:54:39;13.37;;;6.07;;
18316;SDS011;9284;52.298;21.164;2023-10-13T02:57:15;15.30;;;5.80;;
18316;SDS011;9284;52.298;21.164;2023-10-13T02:59:45;15.30;;;6.80;;
18316;SDS011;9284;52.298;21.164;2023-10-13T03:02:13;20.37;;;6.47;;
18316;SDS011;9284;52.298;21.164;2023-10-13T03:04:50;18.20;;;6.80;;
18316;SDS011;9284;52.298;21.164;2023-10-13T03:07:18;21.47;;;7.23;;
18316;SDS011;9284;52.298;21.164;2023-10-13T03:09:50;12.48;;;6.88;;
18316;SDS011;9284;52.298;21.164;2023-10-13T03:12:20;18.35;;;7.43;;
18316;SDS011;9284;52.298;21.164;2023-10-13T03:14:51;15.30;;;6.20;;
18316;SDS011;9284;52.298;21.164;2023-10-13T03:17:23;19.03;;;6.57;;
18316;SDS011;9284;52.298;21.164;2023-10-13T03:20:00;17.08;;;7.07;;
18316;SDS011;9284;52.298;21.164;2023-10-13T03:22:27;16.67;;;7.40;;
18316;SDS011;9284;52.298;21.164;2023-10-13T03:24:58;17.47;;;7.37;;
18316;SDS011;9284;52.298;21.164;2023-10-13T03:27:32;14.87;;;6.57;;
18316;SDS011;9284;52.298;21.164;2023-10-13T03:30:07;20.23;;;7.03;;
18316;SDS011;9284;52.298;21.164;2023-10-13T03:32:41;15.53;;;7.30;;
18316;SDS011;9284;52.298;21.164;2023-10-13T03:35:13;20.93;;;6.83;;
18316;SDS011;9284;52.298;21.164;2023-10-13T03:37:50;18.30;;;7.33;;
18316;SDS011;9284;52.298;21.164;2023-10-13T03:40:19;19.77;;;7.72;;
18316;SDS011;9284;52.298;21.164;2023-10-13T03:43:06;17.87;;;7.30;;
18316;SDS011;9284;52.298;21.164;2023-10-13T03:45:37;19.60;;;8.13;;
18316;SDS011;9284;52.298;21.164;2023-10-13T03:48:09;23.03;;;9.40;;
18316;SDS011;9284;52.298;21.164;2023-10-13T03:50:56;27.50;;;9.97;;
18316;SDS011;9284;52.298;21.164;2023-10-13T03:53:30;25.67;;;9.27;;
18316;SDS011;9284;52.298;21.164;2023-10-13T03:56:01;28.40;;;9.37;;
18316;SDS011;9284;52.298;21.164;2023-10-13T03:58:40;25.67;;;9.67;;
18316;SDS011;9284;52.298;21.164;2023-10-13T04:01:13;19.93;;;8.37;;
18316;SDS011;9284;52.298;21.164;2023-10-13T04:03:44;19.35;;;8.15;;
18316;SDS011;9284;52.298;21.164;2023-10-13T04:06:30;18.80;;;7.40;;
18316;SDS011;9284;52.298;21.164;2023-10-13T04:09:39;23.50;;;7.80;;
18316;SDS011;9284;52.298;21.164;2023-10-13T04:12:25;23.77;;;8.33;;
18316;SDS011;9284;52.298;21.164;2023-10-13T04:15:12;22.47;;;9.40;;
18316;SDS011;9284;52.298;21.164;2023-10-13T04:17:49;25.50;;;9.50;;
18316;SDS011;9284;52.298;21.164;2023-10-13T04:20:18;25.33;;;9.93;;
18316;SDS011;9284;52.298;21.164;2023-10-13T04:22:59;23.07;;;8.47;;
18316;SDS011;9284;52.298;21.164;2023-10-13T04:25:45;25.07;;;8.83;;
18316;SDS011;9284;52.298;21.164;2023-10-13T04:28:34;20.87;;;8.27;;
18316;SDS011;9284;52.298;21.164;2023-10-13T04:31:18;24.93;;;8.87;;
18316;SDS011;9284;52.298;21.164;2023-10-13T04:34:11;24.23;;;9.50;;
18316;SDS011;9284;52.298;21.164;2023-10-13T04:36:54;29.37;;;11.70;;
18316;SDS011;9284;52.298;21.164;2023-10-13T04:39:45;23.70;;;10.00;;
18316;SDS011;9284;52.298;21.164;2023-10-13T04:42:23;22.97;;;8.83;;
18316;SDS011;9284;52.298;21.164;2023-10-13T04:45:06;23.47;;;8.27;;
18316;SDS011;9284;52.298;21.164;2023-10-13T04:47:56;22.70;;;8.47;;
18316;SDS011;9284;52.298;21.164;2023-10-13T04:50:42;29.60;;;9.30;;
18316;SDS011;9284;52.298;21.164;2023-10-13T04:53:12;22.93;;;8.40;;
18316;SDS011;9284;52.298;21.164;2023-10-13T04:56:00;17.80;;;8.60;;
18316;SDS011;9284;52.298;21.164;2023-10-13T04:58:42;20.83;;;9.00;;
18316;SDS011;9284;52.298;21.164;2023-10-13T05:01:27;26.37;;;9.60;;
18316;SDS011;9284;52.298;21.164;2023-10-13T05:04:17;23.40;;;9.93;;
18316;SDS011;9284;52.298;21.164;2023-10-13T05:07:04;25.17;;;9.97;;
18316;SDS011;9284;52.298;21.164;2023-10-13T05:09:50;22.40;;;9.27;;
18316;SDS011;9284;52.298;21.164;2023-10-13T05:12:36;22.77;;;10.20;;
18316;SDS011;9284;52.298;21.164;2023-10-13T05:15:22;22.93;;;9.47;;
18316;SDS011;9284;52.298;21.164;2023-10-13T05:18:08;22.43;;;9.57;;
18316;SDS011;9284;52.298;21.164;2023-10-13T05:20:56;27.00;;;9.70;;
18316;SDS011;9284;52.298;21.164;2023-10-13T05:23:41;23.90;;;9.98;;
18316;SDS011;9284;52.298;21.164;2023-10-13T05:26:27;20.77;;;9.57;;
18316;SDS011;9284;52.298;21.164;2023-10-13T05:29:13;24.15;;;10.30;;
18316;SDS011;9284;52.298;21.164;2023-10-13T05:31:59;24.67;;;10.63;;
18316;SDS011;9284;52.298;21.164;2023-10-13T05:34:45;26.93;;;9.97;;
18316;SDS011;9284;52.298;21.164;2023-10-13T05:37:32;21.60;;;9.60;;
18316;SDS011;9284;52.298;21.164;2023-10-13T05:40:30;22.45;;;9.85;;
18316;SDS011;9284;52.298;21.164;2023-10-13T05:43:16;24.92;;;9.93;;
18316;SDS011;9284;52.298;21.164;2023-10-13T05:46:02;22.73;;;8.95;;
18316;SDS011;9284;52.298;21.164;2023-10-13T05:48:45;23.73;;;9.27;;
18316;SDS011;9284;52.298;21.164;2023-10-13T05:51:52;25.45;;;9.52;;
18316;SDS011;9284;52.298;21.164;2023-10-13T05:54:33;21.47;;;9.50;;
18316;SDS011;9284;52.298;21.164;2023-10-13T05:57:15;19.55;;;9.15;;
18316;SDS011;9284;52.298;21.164;2023-10-13T06:00:01;22.23;;;9.50;;
18316;SDS011;9284;52.298;21.164;2023-10-13T06:02:47;19.43;;;8.83;;
18316;SDS011;9284;52.298;21.164;2023-10-13T06:05:33;19.33;;;8.82;;
18316;SDS011;9284;52.298;21.164;2023-10-13T06:08:22;19.23;;;8.55;;
18316;SDS011;9284;52.298;21.164;2023-10-13T06:11:09;23.52;;;10.32;;
18316;SDS011;9284;52.298;21.164;2023-10-13T06:13:54;25.45;;;10.23;;
18316;SDS011;9284;52.298;21.164;2023-10-13T06:16:40;20.75;;;9.10;;
18316;SDS011;9284;52.298;21.164;2023-10-13T06:19:26;18.85;;;8.73;;
18316;SDS011;9284;52.298;21.164;2023-10-13T06:22:11;18.80;;;8.10;;
18316;SDS011;9284;52.298;21.164;2023-10-13T06:24:58;25.58;;;8.23;;
18316;SDS011;9284;52.298;21.164;2023-10-13T06:27:44;20.55;;;9.20;;
18316;SDS011;9284;52.298;21.164;2023-10-13T06:30:30;20.63;;;8.35;;
18316;SDS011;9284;52.298;21.164;2023-10-13T06:32:59;17.65;;;8.93;;
18316;SDS011;9284;52.298;21.164;2023-10-13T06:35:31;19.75;;;7.65;;
18316;SDS011;9284;52.298;21.164;2023-10-13T06:38:01;16.48;;;8.32;;
18316;SDS011;9284;52.298;21.164;2023-10-13T06:40:31;17.02;;;6.10;;
18316;SDS011;9284;52.298;21.164;2023-10-13T06:43:01;12.93;;;6.75;;
18316;SDS011;9284;52.298;21.164;2023-10-13T06:45:45;12.82;;;6.53;;
18316;SDS011;9284;52.298;21.164;2023-10-13T06:48:17;13.00;;;6.68;;
18316;SDS011;9284;52.298;21.164;2023-10-13T06:50:47;9.30;;;5.68;;
18316;SDS011;9284;52.298;21.164;2023-10-13T06:53:18;9.85;;;4.85;;
18316;SDS011;9284;52.298;21.164;2023-10-13T06:55:48;10.18;;;5.43;;
18316;SDS011;9284;52.298;21.164;2023-10-13T06:58:19;8.82;;;5.30;;
18316;SDS011;9284;52.298;21.164;2023-10-13T07:00:51;10.82;;;5.03;;
18316;SDS011;9284;52.298;21.164;2023-10-13T07:03:24;9.85;;;5.40;;
18316;SDS011;9284;52.298;21.164;2023-10-13T07:05:53;10.32;;;5.03;;
18316;SDS011;9284;52.298;21.164;2023-10-13T07:08:25;10.73;;;5.07;;
18316;SDS011;9284;52.298;21.164;2023-10-13T07:10:59;11.30;;;5.05;;
18316;SDS011;9284;52.298;21.164;2023-10-13T07:13:32;8.05;;;4.95;;
18316;SDS011;9284;52.298;21.164;2023-10-13T07:16:06;12.55;;;6.25;;
18316;SDS011;9284;52.298;21.164;2023-10-13T07:18:55;8.40;;;5.43;;
18316;SDS011;9284;52.298;21.164;2023-10-13T07:21:31;10.32;;;5.25;;
18316;SDS011;9284;52.298;21.164;2023-10-13T07:24:00;11.73;;;5.40;;
18316;SDS011;9284;52.298;21.164;2023-10-13T07:26:37;9.38;;;5.93;;
18316;SDS011;9284;52.298;21.164;2023-10-13T07:29:10;14.00;;;6.30;;
18316;SDS011;9284;52.298;21.164;2023-10-13T07:31:39;15.07;;;6.20;;
18316;SDS011;9284;52.298;21.164;2023-10-13T07:34:12;15.40;;;6.80;;
18316;SDS011;9284;52.298;21.164;2023-10-13T07:36:50;12.35;;;6.28;;
18316;SDS011;9284;52.298;21.164;2023-10-13T07:39:19;21.38;;;6.13;;
18316;SDS011;9284;52.298;21.164;2023-10-13T07:41:51;18.00;;;6.05;;
18316;SDS011;9284;52.298;21.164;2023-10-13T07:44:30;15.23;;;6.80;;
18316;SDS011;9284;52.298;21.164;2023-10-13T07:47:00;13.75;;;6.28;;
18316;SDS011;9284;52.298;21.164;2023-10-13T07:49:32;14.70;;;6.13;;
18316;SDS011;9284;52.298;21.164;2023-10-13T07:52:04;14.52;;;6.93;;
18316;SDS011;9284;52.298;21.164;2023-10-13T07:54:47;31.35;;;14.75;;
18316;SDS011;9284;52.298;21.164;2023-10-13T07:57:24;14.73;;;7.20;;
18316;SDS011;9284;52.298;21.164;2023-10-13T07:59:56;22.40;;;7.40;;
18316;SDS011;9284;52.298;21.164;2023-10-13T08:02:36;31.30;;;14.55;;
18316;SDS011;9284;52.298;21.164;2023-10-13T08:05:18;16.83;;;8.30;;
18316;SDS011;9284;52.298;21.164;2023-10-13T08:08:06;24.77;;;11.60;;
18316;SDS011;9284;52.298;21.164;2023-10-13T08:10:41;19.65;;;8.85;;
18316;SDS011;9284;52.298;21.164;2023-10-13T08:13:13;36.20;;;17.10;;
18316;SDS011;9284;52.298;21.164;2023-10-13T08:15:42;27.42;;;13.70;;
18316;SDS011;9284;52.298;21.164;2023-10-13T08:18:14;18.98;;;9.77;;
18316;SDS011;9284;52.298;21.164;2023-10-13T08:20:46;12.68;;;7.43;;
18316;SDS011;9284;52.298;21.164;2023-10-13T08:23:18;20.83;;;8.60;;
18316;SDS011;9284;52.298;21.164;2023-10-13T08:26:08;27.45;;;10.43;;
18316;SDS011;9284;52.298;21.164;2023-10-13T08:28:56;39.95;;;13.50;;
18316;SDS011;9284;52.298;21.164;2023-10-13T08:31:46;30.25;;;13.00;;
18316;SDS011;9284;52.298;21.164;2023-10-13T08:34:31;17.50;;;9.07;;
18316;SDS011;9284;52.298;21.164;2023-10-13T08:37:05;22.27;;;10.88;;
18316;SDS011;9284;52.298;21.164;2023-10-13T08:39:46;20.73;;;11.30;;
18316;SDS011;9284;52.298;21.164;2023-10-13T08:42:48;15.95;;;8.77;;
18316;SDS011;9284;52.298;21.164;2023-10-13T08:45:39;16.67;;;8.70;;
18316;SDS011;9284;52.298;21.164;2023-10-13T08:48:25;16.70;;;7.72;;
18316;SDS011;9284;52.298;21.164;2023-10-13T08:51:03;20.05;;;11.05;;
18316;SDS011;9284;52.298;21.164;2023-10-13T08:53:37;20.38;;;11.02;;
18316;SDS011;9284;52.298;21.164;2023-10-13T08:56:18;13.60;;;8.70;;
18316;SDS011;9284;52.298;21.164;2023-10-13T08:59:01;17.77;;;9.18;;
18316;SDS011;9284;52.298;21.164;2023-10-13T09:01:34;18.77;;;9.30;;
18316;SDS011;9284;52.298;21.164;2023-10-13T09:04:07;20.80;;;8.55;;
18316;SDS011;9284;52.298;21.164;2023-10-13T09:06:49;23.17;;;10.13;;
18316;SDS011;9284;52.298;21.164;2023-10-13T09:09:45;22.83;;;13.05;;
18316;SDS011;9284;52.298;21.164;2023-10-13T09:12:27;15.10;;;9.43;;
18316;SDS011;9284;52.298;21.164;2023-10-13T09:15:06;15.18;;;8.55;;
18316;SDS011;9284;52.298;21.164;2023-10-13T09:17:46;17.50;;;8.10;;
18316;SDS011;9284;52.298;21.164;2023-10-13T09:20:27;13.98;;;8.27;;
18316;SDS011;9284;52.298;21.164;2023-10-13T09:23:09;15.73;;;7.15;;
18316;SDS011;9284;52.298;21.164;2023-10-13T09:25:39;16.88;;;6.68;;
18316;SDS011;9284;52.298;21.164;2023-10-13T09:28:20;16.08;;;7.10;;
18316;SDS011;9284;52.298;21.164;2023-10-13T09:30:52;16.45;;;6.40;;
18316;SDS011;9284;52.298;21.164;2023-10-13T09:33:25;15.10;;;6.53;;
18316;SDS011;9284;52.298;21.164;2023-10-13T09:35:59;13.77;;;6.20;;
18316;SDS011;9284;52.298;21.164;2023-10-13T09:38:27;13.18;;;5.75;;
18316;SDS011;9284;52.298;21.164;2023-10-13T09:40:57;13.27;;;5.80;;
18316;SDS011;9284;52.298;21.164;2023-10-13T09:43:28;14.77;;;5.18;;
18316;SDS011;9284;52.298;21.164;2023-10-13T09:45:58;12.52;;;5.63;;
18316;SDS011;9284;52.298;21.164;2023-10-13T09:48:36;16.20;;;5.63;;
18316;SDS011;9284;52.298;21.164;2023-10-13T09:51:10;15.23;;;6.93;;
18316;SDS011;9284;52.298;21.164;2023-10-13T09:53:39;19.63;;;6.88;;
18316;SDS011;9284;52.298;21.164;2023-10-13T09:56:32;20.02;;;8.05;;
18316;SDS011;9284;52.298;21.164;2023-10-13T09:59:19;19.63;;;8.82;;
18316;SDS011;9284;52.298;21.164;2023-10-13T10:01:51;18.45;;;8.30;;
18316;SDS011;9284;52.298;21.164;2023-10-13T10:04:26;16.80;;;6.13;;
18316;SDS011;9284;52.298;21.164;2023-10-13T10:06:58;21.83;;;7.05;;
18316;SDS011;9284;52.298;21.164;2023-10-13T10:09:27;20.25;;;7.05;;
18316;SDS011;9284;52.298;21.164;2023-10-13T10:12:06;22.08;;;7.63;;
18316;SDS011;9284;52.298;21.164;2023-10-13T10:14:44;15.30;;;6.20;;
18316;SDS011;9284;52.298;21.164;2023-10-13T10:17:26;19.55;;;7.10;;
18316;SDS011;9284;52.298;21.164;2023-10-13T10:19:58;16.23;;;6.80;;
18316;SDS011;9284;52.298;21.164;2023-10-13T10:22:32;21.38;;;6.78;;
18316;SDS011;9284;52.298;21.164;2023-10-13T10:25:03;22.25;;;7.53;;
18316;SDS011;9284;52.298;21.164;2023-10-13T10:27:54;17.55;;;7.05;;
18316;SDS011;9284;52.298;21.164;2023-10-13T10:30:24;19.38;;;6.72;;
18316;SDS011;9284;52.298;21.164;2023-10-13T10:32:56;20.13;;;6.55;;
18316;SDS011;9284;52.298;21.164;2023-10-13T10:35:28;17.30;;;7.05;;
18316;SDS011;9284;52.298;21.164;2023-10-13T10:38:06;16.38;;;6.47;;
18316;SDS011;9284;52.298;21.164;2023-10-13T10:40:49;14.85;;;6.63;;
18316;SDS011;9284;52.298;21.164;2023-10-13T10:43:19;20.17;;;6.95;;
18316;SDS011;9284;52.298;21.164;2023-10-13T10:45:59;18.90;;;7.22;;
18316;SDS011;9284;52.298;21.164;2023-10-13T10:48:27;14.25;;;6.18;;
18316;SDS011;9284;52.298;21.164;2023-10-13T10:51:06;14.75;;;6.05;;
18316;SDS011;9284;52.298;21.164;2023-10-13T10:53:41;17.98;;;6.63;;
18316;SDS011;9284;52.298;21.164;2023-10-13T10:56:13;13.88;;;6.10;;
18316;SDS011;9284;52.298;21.164;2023-10-13T10:58:53;19.02;;;7.03;;
18316;SDS011;9284;52.298;21.164;2023-10-13T11:01:25;13.10;;;6.03;;
18316;SDS011;9284;52.298;21.164;2023-10-13T11:04:01;16.48;;;5.90;;
18316;SDS011;9284;52.298;21.164;2023-10-13T11:06:37;15.02;;;5.85;;
18316;SDS011;9284;52.298;21.164;2023-10-13T11:09:09;14.40;;;6.45;;
18316;SDS011;9284;52.298;21.164;2023-10-13T11:11:47;14.82;;;6.20;;
18316;SDS011;9284;52.298;21.164;2023-10-13T11:14:19;12.20;;;5.78;;
18316;SDS011;9284;52.298;21.164;2023-10-13T11:16:51;14.80;;;5.82;;
18316;SDS011;9284;52.298;21.164;2023-10-13T11:19:21;11.95;;;5.50;;
18316;SDS011;9284;52.298;21.164;2023-10-13T11:22:11;13.48;;;5.22;;
18316;SDS011;9284;52.298;21.164;2023-10-13T11:24:56;13.27;;;5.60;;
18316;SDS011;9284;52.298;21.164;2023-10-13T11:27:30;11.32;;;6.07;;
18316;SDS011;9284;52.298;21.164;2023-10-13T11:30:23;13.93;;;6.57;;
18316;SDS011;9284;52.298;21.164;2023-10-13T11:32:57;19.20;;;9.57;;
18316;SDS011;9284;52.298;21.164;2023-10-13T11:35:26;15.07;;;6.60;;
18316;SDS011;9284;52.298;21.164;2023-10-13T11:38:17;13.32;;;6.47;;
18316;SDS011;9284;52.298;21.164;2023-10-13T11:40:53;18.48;;;6.88;;
18316;SDS011;9284;52.298;21.164;2023-10-13T11:43:39;11.63;;;6.38;;
18316;SDS011;9284;52.298;21.164;2023-10-13T11:46:32;18.88;;;8.18;;
18316;SDS011;9284;52.298;21.164;2023-10-13T11:49:18;14.45;;;6.57;;
18316;SDS011;9284;52.298;21.164;2023-10-13T11:51:58;13.82;;;5.70;;
18316;SDS011;9284;52.298;21.164;2023-10-13T11:54:45;15.65;;;7.20;;
18316;SDS011;9284;52.298;21.164;2023-10-13T11:57:15;16.48;;;7.93;;
18316;SDS011;9284;52.298;21.164;2023-10-13T11:59:47;15.85;;;6.13;;
18316;SDS011;9284;52.298;21.164;2023-10-13T12:02:23;13.90;;;6.40;;
18316;SDS011;9284;52.298;21.164;2023-10-13T12:05:09;12.73;;;5.63;;
18316;SDS011;9284;52.298;21.164;2023-10-13T12:07:46;13.50;;;6.05;;
18316;SDS011;9284;52.298;21.164;2023-10-13T12:10:17;12.95;;;6.90;;
18316;SDS011;9284;52.298;21.164;2023-10-13T12:13:01;12.55;;;5.55;;
18316;SDS011;9284;52.298;21.164;2023-10-13T12:15:37;13.02;;;5.40;;
18316;SDS011;9284;52.298;21.164;2023-10-13T12:18:15;16.77;;;5.75;;
18316;SDS011;9284;52.298;21.164;2023-10-13T12:20:46;14.30;;;6.82;;
18316;SDS011;9284;52.298;21.164;2023-10-13T12:23:17;10.77;;;5.45;;
18316;SDS011;9284;52.298;21.164;2023-10-13T12:25:50;10.60;;;5.28;;
18316;SDS011;9284;52.298;21.164;2023-10-13T12:28:30;10.35;;;5.30;;
18316;SDS011;9284;52.298;21.164;2023-10-13T12:31:05;12.65;;;5.45;;
18316;SDS011;9284;52.298;21.164;2023-10-13T12:33:38;10.75;;;5.57;;
18316;SDS011;9284;52.298;21.164;2023-10-13T12:36:10;13.00;;;5.78;;
18316;SDS011;9284;52.298;21.164;2023-10-13T12:38:42;10.85;;;5.38;;
18316;SDS011;9284;52.298;21.164;2023-10-13T12:41:35;14.18;;;5.55;;
18316;SDS011;9284;52.298;21.164;2023-10-13T12:44:25;15.73;;;7.10;;
18316;SDS011;9284;52.298;21.164;2023-10-13T12:47:14;12.80;;;5.78;;
18316;SDS011;9284;52.298;21.164;2023-10-13T12:50:00;13.23;;;5.85;;
18316;SDS011;9284;52.298;21.164;2023-10-13T12:52:52;15.85;;;5.93;;
18316;SDS011;9284;52.298;21.164;2023-10-13T12:55:21;13.27;;;5.93;;
18316;SDS011;9284;52.298;21.164;2023-10-13T12:57:55;16.55;;;6.38;;
18316;SDS011;9284;52.298;21.164;2023-10-13T13:00:23;13.13;;;6.45;;
18316;SDS011;9284;52.298;21.164;2023-10-13T13:02:52;17.20;;;6.38;;
18316;SDS011;9284;52.298;21.164;2023-10-13T13:05:23;14.57;;;6.20;;
18316;SDS011;9284;52.298;21.164;2023-10-13T13:07:56;16.80;;;6.93;;
18316;SDS011;9284;52.298;21.164;2023-10-13T13:10:25;12.07;;;6.03;;
18316;SDS011;9284;52.298;21.164;2023-10-13T13:13:04;12.02;;;6.07;;
18316;SDS011;9284;52.298;21.164;2023-10-13T13:15:34;18.10;;;7.53;;
18316;SDS011;9284;52.298;21.164;2023-10-13T13:18:04;14.32;;;6.50;;
18316;SDS011;9284;52.298;21.164;2023-10-13T13:20:39;16.23;;;6.38;;
18316;SDS011;9284;52.298;21.164;2023-10-13T13:23:20;19.55;;;6.93;;
18316;SDS011;9284;52.298;21.164;2023-10-13T13:25:53;17.33;;;6.78;;
18316;SDS011;9284;52.298;21.164;2023-10-13T13:28:26;14.35;;;6.50;;
18316;SDS011;9284;52.298;21.164;2023-10-13T13:31:04;16.40;;;6.82;;
18316;SDS011;9284;52.298;21.164;2023-10-13T13:33:35;14.20;;;6.10;;
18316;SDS011;9284;52.298;21.164;2023-10-13T13:36:05;14.68;;;6.65;;
18316;SDS011;9284;52.298;21.164;2023-10-13T13:38:43;13.75;;;6.20;;
18316;SDS011;9284;52.298;21.164;2023-10-13T13:41:16;16.73;;;6.68;;
18316;SDS011;9284;52.298;21.164;2023-10-13T13:43:53;17.50;;;7.00;;
18316;SDS011;9284;52.298;21.164;2023-10-13T13:46:27;16.50;;;6.82;;
18316;SDS011;9284;52.298;21.164;2023-10-13T13:49:00;12.93;;;6.57;;
18316;SDS011;9284;52.298;21.164;2023-10-13T13:51:28;18.30;;;7.75;;
18316;SDS011;9284;52.298;21.164;2023-10-13T13:53:58;12.68;;;6.38;;
18316;SDS011;9284;52.298;21.164;2023-10-13T13:56:31;13.20;;;6.88;;
18316;SDS011;9284;52.298;21.164;2023-10-13T13:59:06;14.63;;;6.75;;
18316;SDS011;9284;52.298;21.164;2023-10-13T14:01:36;20.80;;;6.90;;
18316;SDS011;9284;52.298;21.164;2023-10-13T14:04:07;13.80;;;6.97;;
18316;SDS011;9284;52.298;21.164;2023-10-13T14:06:36;11.35;;;6.70;;
18316;SDS011;9284;52.298;21.164;2023-10-13T14:09:05;10.75;;;6.57;;
18316;SDS011;9284;52.298;21.164;2023-10-13T14:11:41;17.92;;;6.78;;
18316;SDS011;9284;52.298;21.164;2023-10-13T14:14:28;14.80;;;8.13;;
18316;SDS011;9284;52.298;21.164;2023-10-13T14:17:00;22.10;;;10.68;;
18316;SDS011;9284;52.298;21.164;2023-10-13T14:19:34;18.75;;;10.38;;
18316;SDS011;9284;52.298;21.164;2023-10-13T14:22:07;17.45;;;9.60;;
18316;SDS011;9284;52.298;21.164;2023-10-13T14:24:39;13.43;;;8.55;;
18316;SDS011;9284;52.298;21.164;2023-10-13T14:27:18;27.70;;;14.18;;
18316;SDS011;9284;52.298;21.164;2023-10-13T14:29:54;20.50;;;10.13;;
18316;SDS011;9284;52.298;21.164;2023-10-13T14:32:26;15.18;;;7.72;;
18316;SDS011;9284;52.298;21.164;2023-10-13T14:34:55;16.73;;;8.68;;
18316;SDS011;9284;52.298;21.164;2023-10-13T14:37:24;21.08;;;11.13;;
18316;SDS011;9284;52.298;21.164;2023-10-13T14:39:58;19.23;;;9.88;;
18316;SDS011;9284;52.298;21.164;2023-10-13T14:42:27;17.10;;;7.47;;
18316;SDS011;9284;52.298;21.164;2023-10-13T14:45:04;18.33;;;8.13;;
18316;SDS011;9284;52.298;21.164;2023-10-13T14:47:39;13.80;;;7.28;;
18316;SDS011;9284;52.298;21.164;2023-10-13T14:50:08;12.35;;;6.50;;
18316;SDS011;9284;52.298;21.164;2023-10-13T14:52:46;14.95;;;7.70;;
18316;SDS011;9284;52.298;21.164;2023-10-13T14:55:15;14.18;;;8.57;;
18316;SDS011;9284;52.298;21.164;2023-10-13T14:57:46;16.08;;;8.43;;
18316;SDS011;9284;52.298;21.164;2023-10-13T15:00:19;14.43;;;7.80;;
18316;SDS011;9284;52.298;21.164;2023-10-13T15:02:54;13.50;;;8.07;;
18316;SDS011;9284;52.298;21.164;2023-10-13T15:05:22;15.02;;;8.40;;
18316;SDS011;9284;52.298;21.164;2023-10-13T15:07:51;16.23;;;8.73;;
18316;SDS011;9284;52.298;21.164;2023-10-13T15:10:19;17.88;;;8.38;;
18316;SDS011;9284;52.298;21.164;2023-10-13T15:12:48;15.65;;;8.10;;
18316;SDS011;9284;52.298;21.164;2023-10-13T15:15:19;13.85;;;7.93;;
18316;SDS011;9284;52.298;21.164;2023-10-13T15:17:50;17.42;;;8.27;;
18316;SDS011;9284;52.298;21.164;2023-10-13T15:20:20;18.17;;;8.52;;
18316;SDS011;9284;52.298;21.164;2023-10-13T15:22:49;15.98;;;8.07;;
18316;SDS011;9284;52.298;21.164;2023-10-13T15:25:25;18.23;;;9.63;;
18316;SDS011;9284;52.298;21.164;2023-10-13T15:28:06;21.25;;;10.52;;